Airfield :







YOU CAN JOIN US ON...

 
LOGIN :

Register | Disclaimer

   EN    FR    IT 

 









Legend :    VFR   Marginal VFR   IFR   Intensive IFR   Very Intensive IFR
Visi :
Ceiling :
>= 8 km
>= 3000ft
5 to 8 km
1000 to 3000 ft
1500m to 5 km
500 to 1000 ft
800 to 1500m
200 to 500 ft
< 800m
< 200 ft
Symbols :   Thunderstorms  Fog  Heavy snow  Heavy precipitations  Wind > 20 kt






- Airport Elevation : 76 ft
- IATA code : PWM


KPWM - Portland International Jetport

CURRENT METAR :
  • 291351Z 18010KT 10SM FEW004 FEW035 BKN250 23/18 A2996 RMK AO2 SLP146 T02330183

EXPIRED METARs :
  • 291251Z 17005KT 10SM FEW004 SCT028 BKN130 19/16 A2999 RMK AO2 SLP154 T01890161
  • 291216Z 16004KT 10SM FEW004 BKN028 19/17 A3000 RMK AO2 T01940167
  • 291151Z 18005KT 10SM SCT004 SCT025 BKN130 19/17 A3000 RMK AO2 SLP158 T01890167 10194 20178 58001

TAF KPWM
Valid from the 29 at 11:00 until the 30 at 12:00 UTC


291122Z 2911/3012 19010KT P6SM SCT004 BKN025
FM291500 19010KT P6SM SCT035
FM300000 19010KT 1 1/2SM BR OVC010
KZBW FIR / North America



MET'MAP, your aeronautical weather chart ! - Copyright ORBIFLY December 2007 - Disclaimer

ORBIFLY MET'MAP TEAM :

Programming & Development : Alexandra Zaïnal
Concept & original design : Baudouin d'Aumeries
Assistance for programming : Marc-Olivier Méhu
Technical & hardware support : Manuel Goepfert

Contact : metmap@orbifly.com




SOURCES & CREDITS :

   NOAA